createdAt,value
2017-10-28T00:00:52.473Z,12.4
2017-10-28T00:01:52.111Z,12.35
2017-10-28T00:02:52.110Z,12.45
2017-10-28T00:03:52.412Z,12.5
2017-10-28T00:04:52.424Z,12.55
2017-10-28T00:05:52.353Z,12.53
2017-10-28T00:06:52.437Z,12.5
2017-10-28T00:07:52.303Z,12.43
2017-10-28T00:08:52.356Z,12.4
2017-10-28T00:09:52.329Z,12.39
2017-10-28T00:10:52.277Z,12.57
2017-10-28T00:11:52.262Z,12.52
2017-10-28T00:12:52.325Z,12.53
2017-10-28T00:13:51.562Z,12.49
2017-10-28T00:14:51.878Z,12.58
2017-10-28T00:15:51.831Z,12.49
2017-10-28T00:16:52.250Z,12.52
2017-10-28T00:17:52.115Z,12.53
2017-10-28T00:18:51.762Z,12.43
2017-10-28T00:19:51.755Z,12.45
2017-10-28T00:20:52.152Z,12.4
2017-10-28T00:21:51.713Z,12.39
2017-10-28T00:22:51.684Z,12.5
2017-10-28T00:23:51.675Z,12.58
2017-10-28T00:24:51.645Z,12.55
2017-10-28T00:25:51.631Z,12.46
2017-10-28T00:26:51.935Z,12.4
2017-10-28T00:27:51.272Z,12.45
2017-10-28T00:28:51.612Z,12.37
2017-10-28T00:29:51.550Z,12.39
2017-10-28T00:30:51.863Z,12.45
2017-10-28T00:31:51.863Z,12.49
2017-10-28T00:32:51.502Z,12.49
2017-10-28T00:33:51.791Z,12.55
2017-10-28T00:34:51.458Z,12.5
2017-10-28T00:35:51.454Z,12.45
2017-10-28T00:36:51.751Z,12.35
2017-10-28T00:37:51.392Z,12.21
2017-10-28T00:38:51.373Z,12.21
2017-10-28T00:39:51.680Z,12.21
2017-10-28T00:40:51.672Z,12.25
2017-10-28T00:41:51.642Z,12.23
2017-10-28T00:42:51.694Z,12.17
2017-10-28T00:43:51.591Z,12.25
2017-10-28T00:44:51.067Z,12.24
2017-10-28T00:45:51.554Z,12.35
2017-10-28T00:46:51.646Z,12.37
2017-10-28T00:47:51.537Z,12.35
2017-10-28T00:48:51.506Z,12.39
2017-10-28T00:49:51.162Z,12.45
2017-10-28T00:50:51.481Z,12.37
2017-10-28T00:51:51.433Z,12.37
2017-10-28T00:52:51.490Z,12.39
2017-10-28T00:53:51.402Z,12.39
2017-10-28T00:54:51.191Z,12.49
2017-10-28T00:55:51.045Z,12.49
2017-10-28T00:56:51.061Z,12.45
2017-10-28T00:57:51.052Z,12.42
2017-10-28T00:58:51.415Z,12.35
2017-10-28T00:59:51.045Z,12.34
2017-10-28T01:00:50.712Z,12.31
2017-10-28T01:01:50.913Z,12.35
2017-10-28T01:02:50.902Z,12.3
2017-10-28T01:03:50.553Z,12.43
2017-10-28T01:04:50.874Z,12.34
2017-10-28T01:05:51.225Z,12.39
2017-10-28T01:06:51.221Z,12.48
2017-10-28T01:07:51.184Z,12.39
2017-10-28T01:08:50.781Z,12.39
2017-10-28T01:09:50.433Z,12.39
2017-10-28T01:10:50.745Z,12.42
2017-10-28T01:11:50.792Z,12.37
2017-10-28T01:12:51.011Z,12.35
2017-10-28T01:13:50.673Z,12.3
2017-10-28T01:14:50.700Z,12.32
2017-10-28T01:15:50.645Z,12.42
2017-10-28T01:16:50.434Z,12.43
2017-10-28T01:17:50.939Z,12.43
2017-10-28T01:18:51.012Z,12.42
2017-10-28T01:19:50.671Z,12.53
2017-10-28T01:20:50.553Z,12.5
2017-10-28T01:21:50.522Z,12.46
2017-10-28T01:22:50.489Z,12.45
2017-10-28T01:23:50.483Z,12.45
2017-10-28T01:24:50.467Z,12.49
2017-10-28T01:25:50.564Z,12.53
2017-10-28T01:26:50.421Z,12.5
2017-10-28T01:27:50.411Z,12.42
2017-10-28T01:28:50.375Z,12.53
2017-10-28T01:29:50.440Z,12.37
2017-10-28T01:30:50.344Z,12.43
2017-10-28T01:31:50.733Z,12.34
2017-10-28T01:32:50.629Z,12.32
2017-10-28T01:33:50.655Z,12.4
2017-10-28T01:34:50.580Z,12.32
2017-10-28T01:35:50.302Z,12.32
2017-10-28T01:36:50.542Z,12.37
2017-10-28T01:37:50.547Z,12.35
2017-10-28T01:38:50.508Z,12.39
2017-10-28T01:39:50.291Z,12.32
2017-10-28T01:40:50.470Z,12.32
2017-10-28T01:41:50.562Z,12.31
2017-10-28T01:42:50.432Z,12.35
2017-10-28T01:43:50.445Z,12.35
2017-10-28T01:44:50.389Z,12.31
2017-10-28T01:45:50.357Z,12.31
2017-10-28T01:46:50.347Z,12.37
2017-10-28T01:47:50.325Z,12.32
2017-10-28T01:48:50.386Z,12.37
2017-10-28T01:49:50.283Z,12.3
2017-10-28T01:50:49.930Z,12.27
2017-10-28T01:51:49.942Z,12.28
2017-10-28T01:52:49.893Z,12.35
2017-10-28T01:53:50.193Z,12.42
2017-10-28T01:54:50.292Z,12.23
2017-10-28T01:55:50.164Z,12.23
2017-10-28T01:56:50.139Z,12.32
2017-10-28T01:57:50.113Z,12.32
2017-10-28T01:58:49.781Z,12.35
2017-10-28T01:59:49.742Z,12.39
2017-10-28T02:00:49.730Z,12.34
2017-10-28T02:01:49.383Z,12.34
2017-10-28T02:02:50.012Z,12.39
2017-10-28T02:03:49.993Z,12.37
2017-10-28T02:04:49.992Z,12.42
2017-10-28T02:05:49.634Z,12.39
2017-10-28T02:06:49.942Z,12.37
2017-10-28T02:07:49.929Z,12.32
2017-10-28T02:08:49.913Z,12.35
2017-10-28T02:09:49.883Z,12.31
2017-10-28T02:10:49.902Z,12.27
2017-10-28T02:11:49.834Z,12.32
2017-10-28T02:12:49.488Z,12.31
2017-10-28T02:13:49.460Z,12.34
2017-10-28T02:14:49.773Z,12.32
2017-10-28T02:15:49.111Z,12.39
2017-10-28T02:16:49.785Z,12.45
2017-10-28T02:17:49.392Z,12.46
2017-10-28T02:18:49.473Z,12.37
2017-10-28T02:19:49.703Z,12.4
2017-10-28T02:20:49.665Z,12.27
2017-10-28T02:21:49.322Z,12.43
2017-10-28T02:22:48.976Z,12.37
2017-10-28T02:23:48.944Z,12.34
2017-10-28T02:24:49.244Z,12.45
2017-10-28T02:25:49.553Z,12.45
2017-10-28T02:26:49.209Z,12.27
2017-10-28T02:27:49.195Z,12.32
2017-10-28T02:28:49.184Z,12.32
2017-10-28T02:29:49.166Z,12.25
2017-10-28T02:30:48.853Z,12.32
2017-10-28T02:31:49.167Z,12.34
2017-10-28T02:32:49.092Z,12.23
2017-10-28T02:33:49.491Z,12.31
2017-10-28T02:34:49.375Z,12.2
2017-10-28T02:35:49.036Z,12.21
2017-10-28T02:36:49.332Z,12.23
2017-10-28T02:37:49.308Z,12.17
2017-10-28T02:38:48.973Z,12.2
2017-10-28T02:39:49.354Z,12.3
2017-10-28T02:40:48.930Z,12.2
2017-10-28T02:41:48.903Z,12.05
2017-10-28T02:42:49.223Z,12.16
2017-10-28T02:43:48.874Z,12.17
2017-10-28T02:44:48.903Z,12.21
2017-10-28T02:45:48.822Z,11.95
2017-10-28T02:46:49.137Z,11.91
2017-10-28T02:47:48.462Z,11.84
2017-10-28T02:48:48.763Z,11.83
2017-10-28T02:49:49.074Z,11.89
2017-10-28T02:50:49.041Z,11.91
2017-10-28T02:51:48.725Z,11.72
2017-10-28T02:52:49.010Z,11.86
2017-10-28T02:53:48.684Z,11.94
2017-10-28T02:54:49.005Z,11.94
2017-10-28T02:55:48.302Z,12.02
2017-10-28T02:56:48.604Z,11.99
2017-10-28T02:57:48.903Z,11.98
2017-10-28T02:58:48.878Z,12.03
2017-10-28T02:59:48.601Z,12.02
2017-10-28T03:00:48.534Z,12.02
2017-10-28T03:01:48.814Z,12.13
2017-10-28T03:02:48.485Z,11.99
2017-10-28T03:03:48.471Z,11.95
2017-10-28T03:04:48.440Z,11.94
2017-10-28T03:05:48.514Z,11.94
2017-10-28T03:06:48.408Z,11.95
2017-10-28T03:07:48.725Z,11.95
2017-10-28T03:08:48.375Z,11.94
2017-10-28T03:09:48.341Z,11.91
2017-10-28T03:10:48.626Z,11.94
2017-10-28T03:11:48.615Z,11.83
2017-10-28T03:12:48.273Z,11.87
2017-10-28T03:13:48.589Z,11.9
2017-10-28T03:14:48.230Z,11.79
2017-10-28T03:15:48.565Z,11.89
2017-10-28T03:16:48.201Z,11.76
2017-10-28T03:17:47.860Z,11.73
2017-10-28T03:18:48.485Z,11.84
2017-10-28T03:19:48.448Z,11.58
2017-10-28T03:20:48.122Z,11.6
2017-10-28T03:21:48.426Z,11.68
2017-10-28T03:22:48.074Z,11.68
2017-10-28T03:23:48.052Z,11.53
2017-10-28T03:24:48.382Z,11.57
2017-10-28T03:25:48.014Z,11.6
2017-10-28T03:26:48.324Z,11.61
2017-10-28T03:27:47.972Z,11.73
2017-10-28T03:28:48.273Z,11.75
2017-10-28T03:29:47.931Z,11.84
2017-10-28T03:30:47.918Z,11.83
2017-10-28T03:31:48.206Z,11.71
2017-10-28T03:32:47.883Z,11.72
2017-10-28T03:33:48.172Z,11.73
2017-10-28T03:34:48.158Z,11.64
2017-10-28T03:35:48.132Z,11.68
2017-10-28T03:36:48.111Z,11.79
2017-10-28T03:37:48.083Z,11.79
2017-10-28T03:38:48.084Z,11.87
2017-10-28T03:39:48.052Z,11.9
2017-10-28T03:40:48.033Z,11.84
2017-10-28T03:41:48.017Z,11.72
2017-10-28T03:42:47.675Z,11.68
2017-10-28T03:43:47.963Z,11.81
2017-10-28T03:44:47.946Z,11.79
2017-10-28T03:45:47.931Z,11.81
2017-10-28T03:46:47.913Z,11.84
2017-10-28T03:47:47.552Z,11.91
2017-10-28T03:48:47.542Z,11.87
2017-10-28T03:49:47.843Z,11.89
2017-10-28T03:50:47.573Z,11.73
2017-10-28T03:51:47.804Z,11.72
2017-10-28T03:52:47.796Z,11.68
2017-10-28T03:53:47.444Z,11.57
2017-10-28T03:54:47.734Z,11.58
2017-10-28T03:55:47.400Z,11.58
2017-10-28T03:56:47.494Z,11.57
2017-10-28T03:57:47.690Z,11.61
2017-10-28T03:58:47.120Z,11.58
2017-10-28T03:59:47.315Z,11.46
2017-10-28T04:00:47.303Z,11.24
2017-10-28T04:01:47.285Z,11.31
2017-10-28T04:02:47.573Z,11.29
2017-10-28T04:03:47.228Z,11.31
2017-10-28T04:04:47.302Z,11.36
2017-10-28T04:05:47.512Z,11.43
2017-10-28T04:06:47.493Z,11.47
2017-10-28T04:07:47.480Z,11.5
2017-10-28T04:08:47.443Z,11.5
2017-10-28T04:09:47.433Z,11.54
2017-10-28T04:10:47.417Z,11.6
2017-10-28T04:11:47.387Z,11.57
2017-10-28T04:12:47.374Z,11.38
2017-10-28T04:13:47.024Z,11.46
2017-10-28T04:14:47.012Z,11.47
2017-10-28T04:15:47.012Z,11.43
2017-10-28T04:16:46.961Z,11.43
2017-10-28T04:17:46.952Z,11.53
2017-10-28T04:18:46.915Z,11.48
2017-10-28T04:19:47.212Z,11.42
2017-10-28T04:20:46.603Z,11.47
2017-10-28T04:21:47.172Z,11.46
2017-10-28T04:22:46.935Z,11.48
2017-10-28T04:23:47.143Z,11.5
2017-10-28T04:24:46.793Z,11.42
2017-10-28T04:25:47.093Z,11.51
2017-10-28T04:26:46.751Z,11.48
2017-10-28T04:27:46.411Z,11.43
2017-10-28T04:28:47.038Z,11.42
2017-10-28T04:29:46.692Z,11.42
2017-10-28T04:30:46.672Z,11.42
2017-10-28T04:31:46.983Z,11.46
2017-10-28T04:32:46.936Z,11.46
2017-10-28T04:33:46.943Z,11.57
2017-10-28T04:34:46.903Z,11.68
2017-10-28T04:35:46.896Z,11.57
2017-10-28T04:36:46.543Z,11.58
2017-10-28T04:37:46.520Z,11.48
2017-10-28T04:38:46.821Z,11.53
2017-10-28T04:39:46.485Z,11.64
2017-10-28T04:40:46.793Z,11.6
2017-10-28T04:41:46.444Z,11.4
2017-10-28T04:42:46.422Z,11.48
2017-10-28T04:43:46.411Z,11.35
2017-10-28T04:44:46.370Z,11.47
2017-10-28T04:45:46.713Z,11.39
2017-10-28T04:46:46.663Z,11.33
2017-10-28T04:47:46.323Z,11.35
2017-10-28T04:48:46.633Z,11.28
2017-10-28T04:49:46.604Z,11.23
2017-10-28T04:50:45.930Z,11.39
2017-10-28T04:51:46.572Z,11.24
2017-10-28T04:52:46.542Z,11.33
2017-10-28T04:53:45.873Z,11.39
2017-10-28T04:54:46.511Z,11.46
2017-10-28T04:55:46.162Z,11.53
2017-10-28T04:56:46.132Z,11.46
2017-10-28T04:57:46.437Z,11.24
2017-10-28T04:58:46.085Z,11.29
2017-10-28T04:59:46.063Z,11.21
2017-10-28T05:00:46.376Z,11.15
2017-10-28T05:01:45.721Z,11.23
2017-10-28T05:02:46.321Z,11.23
2017-10-28T05:03:45.663Z,11.32
2017-10-28T05:04:46.282Z,11.32
2017-10-28T05:05:45.942Z,11.23
2017-10-28T05:06:45.923Z,11.33
2017-10-28T05:07:46.218Z,11.32
2017-10-28T05:08:46.215Z,11.36
2017-10-28T05:09:45.536Z,11.5
2017-10-28T05:10:45.856Z,11.46
2017-10-28T05:11:45.825Z,11.58
2017-10-28T05:12:46.136Z,11.51
2017-10-28T05:13:45.453Z,11.46
2017-10-28T05:14:45.752Z,11.51
2017-10-28T05:15:45.728Z,11.48
2017-10-28T05:16:46.050Z,11.48
2017-10-28T05:17:45.692Z,11.28
2017-10-28T05:18:46.006Z,11.23
2017-10-28T05:19:46.046Z,11.35
2017-10-28T05:20:45.650Z,11.43
2017-10-28T05:21:45.289Z,11.46
2017-10-28T05:22:45.589Z,11.33
2017-10-28T05:23:45.576Z,11.35
2017-10-28T05:24:45.543Z,11.35
2017-10-28T05:25:45.864Z,11.35
2017-10-28T05:26:45.508Z,11.38
2017-10-28T05:27:45.839Z,11.33
2017-10-28T05:28:45.793Z,11.31
2017-10-28T05:29:45.773Z,11.29
2017-10-28T05:30:45.753Z,11.35
2017-10-28T05:31:45.745Z,11.28
2017-10-28T05:32:45.384Z,11.35
2017-10-28T05:33:45.684Z,11.23
2017-10-28T05:34:45.678Z,11.28
2017-10-28T05:35:45.635Z,11.2
2017-10-28T05:36:45.682Z,11.2
2017-10-28T05:37:45.312Z,11.18
2017-10-28T05:38:45.589Z,11.31
2017-10-28T05:39:44.922Z,11.31
2017-10-28T05:40:45.622Z,11.24
2017-10-28T05:41:44.873Z,11.32
2017-10-28T05:42:45.506Z,11.14
2017-10-28T05:43:44.852Z,11.11
2017-10-28T05:44:45.558Z,11.11
2017-10-28T05:45:45.422Z,11.24
2017-10-28T05:46:45.445Z,11.38
2017-10-28T05:47:45.383Z,11.26
2017-10-28T05:48:45.368Z,11.15
2017-10-28T05:49:45.395Z,11.17
2017-10-28T05:50:45.023Z,11.21
2017-10-28T05:51:45.325Z,11.35
2017-10-28T05:52:44.994Z,11.32
2017-10-28T05:53:44.607Z,11.2
2017-10-28T05:54:45.256Z,11.13
2017-10-28T05:55:45.239Z,11.2
2017-10-28T05:56:44.867Z,11.02
2017-10-28T05:57:45.275Z,11.13
2017-10-28T05:58:44.863Z,11.11
2017-10-28T05:59:44.833Z,11.18
2017-10-28T06:00:44.802Z,11.32
2017-10-28T06:01:45.093Z,11.33
2017-10-28T06:02:44.761Z,11.29
2017-10-28T06:03:45.064Z,11.17
2017-10-28T06:04:45.094Z,11.32
2017-10-28T06:05:44.682Z,11.29
2017-10-28T06:06:44.663Z,11.32
2017-10-28T06:07:44.338Z,11.2
2017-10-28T06:08:44.956Z,11.36
2017-10-28T06:09:44.989Z,11.33
2017-10-28T06:10:44.934Z,11.15
2017-10-28T06:11:44.568Z,11.18
2017-10-28T06:12:44.209Z,11.15
2017-10-28T06:13:44.853Z,11.31
2017-10-28T06:14:44.492Z,11.21
2017-10-28T06:15:44.865Z,11.28
2017-10-28T06:16:44.783Z,11.2
2017-10-28T06:17:44.435Z,11.15
2017-10-28T06:18:44.087Z,11.2
2017-10-28T06:19:44.393Z,11.18
2017-10-28T06:20:44.693Z,11.28
2017-10-28T06:21:44.662Z,11.42
2017-10-28T06:22:44.001Z,11.35
2017-10-28T06:23:44.316Z,11.47
2017-10-28T06:24:44.299Z,11.48
2017-10-28T06:25:43.943Z,11.57
2017-10-28T06:26:44.562Z,11.51
2017-10-28T06:27:44.223Z,11.53
2017-10-28T06:28:44.520Z,11.57
2017-10-28T06:29:44.195Z,11.57
2017-10-28T06:30:43.832Z,11.58
2017-10-28T06:31:44.473Z,11.57
2017-10-28T06:32:44.128Z,11.54
2017-10-28T06:33:44.423Z,11.56
2017-10-28T06:34:44.086Z,11.6
2017-10-28T06:35:44.049Z,11.56
2017-10-28T06:36:44.358Z,11.56
2017-10-28T06:37:44.004Z,11.54
2017-10-28T06:38:44.328Z,11.53
2017-10-28T06:39:43.702Z,11.56
2017-10-28T06:40:44.278Z,11.5
2017-10-28T06:41:43.935Z,11.6
2017-10-28T06:42:44.245Z,11.51
2017-10-28T06:43:44.280Z,11.56
2017-10-28T06:44:44.184Z,11.57
2017-10-28T06:45:44.241Z,11.54
2017-10-28T06:46:44.173Z,11.53
2017-10-28T06:47:43.887Z,11.57
2017-10-28T06:48:43.783Z,11.56
2017-10-28T06:49:43.853Z,11.61
2017-10-28T06:50:43.747Z,11.6
2017-10-28T06:51:43.730Z,11.57
2017-10-28T06:52:43.713Z,11.36
2017-10-28T06:53:43.357Z,11.33
2017-10-28T06:54:43.661Z,11.46
2017-10-28T06:55:43.650Z,11.46
2017-10-28T06:56:43.943Z,11.56
2017-10-28T06:57:43.605Z,11.66
2017-10-28T06:58:43.578Z,11.57
2017-10-28T06:59:43.562Z,11.48
2017-10-28T07:00:43.223Z,11.53
2017-10-28T07:01:43.209Z,11.39
2017-10-28T07:02:43.502Z,11.43
2017-10-28T07:03:43.592Z,11.43
2017-10-28T07:04:43.480Z,11.43
2017-10-28T07:05:43.201Z,11.48
2017-10-28T07:06:43.743Z,11.46
2017-10-28T07:07:43.791Z,11.46
2017-10-28T07:08:43.375Z,11.4
2017-10-28T07:09:43.778Z,11.46
2017-10-28T07:10:43.475Z,11.38
2017-10-28T07:11:43.105Z,11.39
2017-10-28T07:12:43.672Z,11.35
2017-10-28T07:13:43.653Z,11.31
2017-10-28T07:14:42.929Z,11.18
2017-10-28T07:15:43.662Z,11.29
2017-10-28T07:16:43.221Z,11.38
2017-10-28T07:17:43.632Z,11.28
2017-10-28T07:18:43.233Z,11.43
2017-10-28T07:19:43.606Z,11.38
2017-10-28T07:20:43.144Z,11.47
2017-10-28T07:21:43.443Z,11.48
2017-10-28T07:22:43.402Z,11.6
2017-10-28T07:23:43.393Z,11.57
2017-10-28T07:24:43.045Z,11.6
2017-10-28T07:25:43.350Z,11.64
2017-10-28T07:26:43.480Z,11.47
2017-10-28T07:27:43.327Z,11.51
2017-10-28T07:28:42.999Z,11.6
2017-10-28T07:29:43.356Z,11.66
2017-10-28T07:30:43.367Z,11.61
2017-10-28T07:31:43.213Z,11.72
2017-10-28T07:32:43.312Z,11.71
2017-10-28T07:33:43.176Z,11.69
2017-10-28T07:34:43.227Z,11.79
2017-10-28T07:35:42.816Z,11.75
2017-10-28T07:36:43.114Z,11.69
2017-10-28T07:37:43.104Z,11.69
2017-10-28T07:38:43.102Z,11.72
2017-10-28T07:39:43.073Z,11.81
2017-10-28T07:40:43.034Z,11.81
2017-10-28T07:41:43.107Z,11.83
2017-10-28T07:42:42.673Z,11.83
2017-10-28T07:43:42.641Z,11.91
2017-10-28T07:44:42.952Z,11.86
2017-10-28T07:45:42.934Z,11.94
2017-10-28T07:46:42.590Z,11.99
2017-10-28T07:47:42.583Z,11.89
2017-10-28T07:48:42.881Z,11.83
2017-10-28T07:49:42.845Z,11.66
2017-10-28T07:50:42.825Z,11.79
2017-10-28T07:51:42.473Z,11.75
2017-10-28T07:52:42.795Z,11.84
2017-10-28T07:53:42.764Z,11.81
2017-10-28T07:54:42.089Z,11.94
2017-10-28T07:55:42.713Z,11.95
2017-10-28T07:56:42.696Z,11.89
2017-10-28T07:57:42.674Z,11.9
2017-10-28T07:58:42.660Z,11.95
2017-10-28T07:59:42.633Z,11.91
2017-10-28T08:00:41.975Z,12.03
2017-10-28T08:01:42.603Z,11.81
2017-10-28T08:02:42.584Z,11.87
2017-10-28T08:03:42.234Z,11.87
2017-10-28T08:04:42.543Z,11.81
2017-10-28T08:05:41.863Z,11.79
2017-10-28T08:06:42.504Z,11.78
2017-10-28T08:07:42.464Z,11.79
2017-10-28T08:08:42.466Z,11.78
2017-10-28T08:09:42.104Z,11.81
2017-10-28T08:10:42.086Z,11.83
2017-10-28T08:11:42.065Z,11.86
2017-10-28T08:12:42.363Z,11.84
2017-10-28T08:13:42.026Z,11.86
2017-10-28T08:14:42.332Z,11.89
2017-10-28T08:15:41.986Z,11.94
2017-10-28T08:16:41.963Z,11.91
2017-10-28T08:17:42.280Z,11.94
2017-10-28T08:18:42.236Z,11.94
2017-10-28T08:19:42.226Z,11.9
2017-10-28T08:20:41.875Z,11.97
2017-10-28T08:21:41.946Z,11.91
2017-10-28T08:22:42.175Z,11.97
2017-10-28T08:23:42.134Z,11.91
2017-10-28T08:24:42.126Z,11.91
2017-10-28T08:25:42.103Z,11.98
2017-10-28T08:26:42.094Z,12.05
2017-10-28T08:27:42.070Z,12.02
2017-10-28T08:28:42.032Z,12.07
2017-10-28T08:29:42.027Z,12.02
2017-10-28T08:30:42.025Z,11.91
2017-10-28T08:31:41.996Z,12.09
2017-10-28T08:32:41.682Z,12.06
2017-10-28T08:33:41.948Z,12.1
2017-10-28T08:34:41.275Z,11.97
2017-10-28T08:35:41.892Z,11.95
2017-10-28T08:36:41.864Z,12.05
2017-10-28T08:37:41.863Z,12.21
2017-10-28T08:38:41.653Z,12.4
2017-10-28T08:39:41.495Z,12.34
2017-10-28T08:40:41.525Z,12.23
2017-10-28T08:41:41.442Z,12.1
2017-10-28T08:42:41.112Z,12.17
2017-10-28T08:43:41.410Z,12.1
2017-10-28T08:44:41.474Z,12.23
2017-10-28T08:45:41.392Z,12.12
2017-10-28T08:46:41.683Z,12.17
2017-10-28T08:47:41.644Z,12.15
2017-10-28T08:48:41.625Z,12.15
2017-10-28T08:49:41.606Z,12.16
2017-10-28T08:50:40.945Z,12.07
2017-10-28T08:51:41.583Z,12.03
2017-10-28T08:52:41.563Z,12.09
2017-10-28T08:53:41.222Z,12.15
2017-10-28T08:54:41.172Z,12.12
2017-10-28T08:55:41.478Z,12.02
2017-10-28T08:56:41.457Z,12.13
2017-10-28T08:57:41.473Z,12.15
2017-10-28T08:58:41.432Z,12.15
2017-10-28T08:59:41.415Z,11.99
2017-10-28T09:00:41.067Z,12.32
2017-10-28T09:01:41.366Z,12.57
2017-10-28T09:02:40.705Z,12.64
2017-10-28T09:03:41.012Z,12.73
2017-10-28T09:04:40.993Z,14.14
2017-10-28T09:05:41.273Z,16.76
2017-10-28T09:06:40.944Z,15.98
2017-10-28T09:07:41.258Z,15.4
2017-10-28T09:08:41.213Z,15.07
2017-10-28T09:09:40.881Z,15.53
2017-10-28T09:10:41.182Z,16.36
2017-10-28T09:11:41.163Z,15.64
2017-10-28T09:12:41.132Z,15.07
2017-10-28T09:13:41.114Z,14.72
2017-10-28T09:14:41.125Z,14.48
2017-10-28T09:15:41.087Z,14.38
2017-10-28T09:16:40.729Z,14.17
2017-10-28T09:17:40.710Z,13.96
2017-10-28T09:18:41.035Z,13.72
2017-10-28T09:19:41.015Z,13.44
2017-10-28T09:20:40.974Z,13.19
2017-10-28T09:21:40.966Z,13.01
2017-10-28T09:22:40.926Z,13.06
2017-10-28T09:23:40.924Z,13.03
2017-10-28T09:24:40.895Z,12.96
2017-10-28T09:25:40.883Z,12.79
2017-10-28T09:26:40.875Z,12.71
2017-10-28T09:27:40.824Z,12.6
2017-10-28T09:28:40.817Z,12.49
2017-10-28T09:29:40.794Z,12.42
2017-10-28T09:30:40.777Z,12.42
2017-10-28T09:31:40.752Z,12.37
2017-10-28T09:32:40.722Z,12.42
2017-10-28T09:33:40.720Z,12.4
2017-10-28T09:34:40.687Z,12.43
2017-10-28T09:35:40.676Z,12.45
2017-10-28T09:36:40.674Z,12.39
2017-10-28T09:37:40.624Z,12.46
2017-10-28T09:38:40.687Z,12.48
2017-10-28T09:39:40.597Z,12.45
2017-10-28T09:40:39.916Z,12.39
2017-10-28T09:41:40.557Z,12.37
2017-10-28T09:42:40.537Z,12.48
2017-10-28T09:43:40.187Z,12.42
2017-10-28T09:44:39.835Z,12.32
2017-10-28T09:45:40.176Z,12.43
2017-10-28T09:46:40.437Z,12.37
2017-10-28T09:47:40.464Z,12.28
2017-10-28T09:48:40.105Z,12.34
2017-10-28T09:49:40.380Z,12.32
2017-10-28T09:50:40.356Z,12.32
2017-10-28T09:51:40.345Z,12.37
2017-10-28T09:52:40.325Z,12.39
2017-10-28T09:53:40.303Z,12.37
2017-10-28T09:54:40.294Z,12.34
2017-10-28T09:55:40.298Z,12.32
2017-10-28T09:56:40.230Z,12.31
2017-10-28T09:57:39.635Z,12.3
2017-10-28T09:58:40.208Z,12.37
2017-10-28T09:59:40.176Z,12.4
2017-10-28T10:00:40.153Z,12.3
2017-10-28T10:01:39.926Z,12.23
2017-10-28T10:02:40.134Z,12.32
2017-10-28T10:03:40.113Z,12.37
2017-10-28T10:04:39.743Z,12.32
2017-10-28T10:05:40.065Z,12.39
2017-10-28T10:06:40.034Z,12.37
2017-10-28T10:07:40.020Z,12.32
2017-10-28T10:08:40.009Z,12.32
2017-10-28T10:09:39.983Z,12.3
2017-10-28T10:10:39.635Z,12.3
2017-10-28T10:11:39.938Z,12.32
2017-10-28T10:12:39.932Z,12.34
2017-10-28T10:13:39.651Z,12.4
2017-10-28T10:14:39.235Z,12.48
2017-10-28T10:15:39.528Z,12.3
2017-10-28T10:16:39.826Z,12.31
2017-10-28T10:17:39.503Z,12.34
2017-10-28T10:18:39.788Z,12.31
2017-10-28T10:19:39.804Z,12.3
2017-10-28T10:20:39.755Z,12.16
2017-10-28T10:21:39.076Z,12.23
2017-10-28T10:22:39.711Z,12.17
2017-10-28T10:23:39.394Z,12.24
2017-10-28T10:24:39.676Z,12.13
2017-10-28T10:25:39.654Z,12.16
2017-10-28T10:26:39.633Z,12.31
2017-10-28T10:27:39.280Z,12.32
2017-10-28T10:28:39.584Z,12.32
2017-10-28T10:29:39.314Z,12.37
2017-10-28T10:30:39.215Z,12.4
2017-10-28T10:31:39.510Z,12.45
2017-10-28T10:32:39.189Z,12.52
2017-10-28T10:33:39.507Z,12.48
2017-10-28T10:34:39.473Z,12.42
2017-10-28T10:35:39.446Z,12.45
2017-10-28T10:36:39.445Z,12.42
2017-10-28T10:37:39.395Z,12.42
2017-10-28T10:38:39.386Z,12.46
2017-10-28T10:39:39.041Z,12.43
2017-10-28T10:40:39.334Z,12.46
2017-10-28T10:41:39.336Z,12.42
2017-10-28T10:42:38.985Z,12.3
2017-10-28T10:43:39.284Z,12.32
2017-10-28T10:44:39.271Z,12.32
2017-10-28T10:45:39.237Z,12.34
2017-10-28T10:46:39.235Z,12.31
2017-10-28T10:47:38.558Z,12.31
2017-10-28T10:48:38.854Z,12.35
2017-10-28T10:49:38.833Z,12.3
2017-10-28T10:50:38.803Z,12.31
2017-10-28T10:51:39.127Z,12.35
2017-10-28T10:52:39.115Z,12.37
2017-10-28T10:53:39.074Z,12.45
2017-10-28T10:54:39.055Z,12.31
2017-10-28T10:55:39.042Z,12.34
2017-10-28T10:56:39.024Z,12.4
2017-10-28T10:57:39.022Z,12.39
2017-10-28T10:58:38.975Z,12.3
2017-10-28T10:59:38.964Z,12.35
2017-10-28T11:00:38.938Z,12.39
2017-10-28T11:01:38.590Z,12.45
2017-10-28T11:02:38.883Z,12.43
2017-10-28T11:03:38.565Z,12.52
2017-10-28T11:04:38.865Z,12.53
2017-10-28T11:05:38.522Z,12.49
2017-10-28T11:06:38.175Z,12.43
2017-10-28T11:07:38.784Z,12.45
2017-10-28T11:08:38.772Z,12.42
2017-10-28T11:09:38.444Z,12.46
2017-10-28T11:10:38.422Z,12.45
2017-10-28T11:11:38.396Z,12.5
2017-10-28T11:12:38.381Z,12.57
2017-10-28T11:13:38.683Z,12.57
2017-10-28T11:14:38.335Z,12.61
2017-10-28T11:15:38.328Z,12.67
2017-10-28T11:16:38.295Z,12.64
2017-10-28T11:17:38.275Z,12.67
2017-10-28T11:18:38.582Z,12.6
2017-10-28T11:19:38.235Z,12.68
2017-10-28T11:20:38.538Z,12.63
2017-10-28T11:21:38.526Z,12.63
2017-10-28T11:22:38.507Z,12.53
2017-10-28T11:23:38.160Z,12.57
2017-10-28T11:24:38.472Z,12.63
2017-10-28T11:25:38.107Z,12.63
2017-10-28T11:26:38.091Z,12.68
2017-10-28T11:27:38.539Z,12.61
2017-10-28T11:28:38.444Z,12.6
2017-10-28T11:29:38.425Z,12.58
2017-10-28T11:30:38.021Z,12.73
2017-10-28T11:31:38.542Z,12.7
2017-10-28T11:32:38.312Z,12.78
2017-10-28T11:33:37.966Z,12.82
2017-10-28T11:34:38.320Z,12.76
2017-10-28T11:35:38.248Z,12.74
2017-10-28T11:36:38.226Z,12.79
2017-10-28T11:37:38.307Z,12.88
2017-10-28T11:38:38.194Z,12.83
2017-10-28T11:39:38.175Z,12.74
2017-10-28T11:40:38.147Z,12.73
2017-10-28T11:41:37.818Z,12.78
2017-10-28T11:42:38.101Z,12.74
2017-10-28T11:43:38.069Z,12.67
2017-10-28T11:44:38.075Z,12.64
2017-10-28T11:45:38.066Z,12.64
2017-10-28T11:46:38.034Z,12.71
2017-10-28T11:47:38.014Z,12.67
2017-10-28T11:48:37.673Z,12.61
2017-10-28T11:49:37.681Z,12.76
2017-10-28T11:50:37.924Z,12.79
2017-10-28T11:51:37.924Z,12.73
2017-10-28T11:52:37.907Z,12.78
2017-10-28T11:53:37.905Z,12.79
2017-10-28T11:54:37.879Z,12.81
2017-10-28T11:55:37.832Z,12.79
2017-10-28T11:56:37.879Z,12.71
2017-10-28T11:57:37.585Z,12.71
2017-10-28T11:58:37.794Z,12.64
2017-10-28T11:59:37.442Z,12.63
2017-10-28T12:00:37.854Z,12.58
2017-10-28T12:01:37.806Z,12.61
2017-10-28T12:02:37.398Z,12.6
2017-10-28T12:03:37.336Z,12.61
2017-10-28T12:04:37.733Z,12.63
2017-10-28T12:05:37.332Z,12.64
2017-10-28T12:06:37.849Z,12.61
2017-10-28T12:07:37.277Z,12.64
2017-10-28T12:08:37.562Z,12.65
2017-10-28T12:09:37.613Z,12.68
2017-10-28T12:10:37.580Z,12.71
2017-10-28T12:11:37.537Z,12.85
2017-10-28T12:12:37.510Z,12.83
2017-10-28T12:13:37.475Z,12.89
2017-10-28T12:14:37.136Z,12.86
2017-10-28T12:15:37.104Z,12.76
2017-10-28T12:16:37.493Z,12.79
2017-10-28T12:17:37.435Z,12.71
2017-10-28T12:18:37.383Z,12.63
2017-10-28T12:19:37.023Z,12.67
2017-10-28T12:20:36.734Z,12.7
2017-10-28T12:21:36.986Z,12.64
2017-10-28T12:22:37.306Z,12.67
2017-10-28T12:23:37.274Z,12.73
2017-10-28T12:24:37.300Z,12.82
2017-10-28T12:25:37.251Z,12.81
2017-10-28T12:26:37.252Z,12.7
2017-10-28T12:27:36.873Z,12.82
2017-10-28T12:28:36.842Z,12.73
2017-10-28T12:29:36.508Z,12.78
2017-10-28T12:30:37.178Z,12.86
2017-10-28T12:31:36.797Z,12.97
2017-10-28T12:32:36.776Z,12.7
2017-10-28T12:33:37.090Z,12.79
2017-10-28T12:34:36.775Z,12.94
2017-10-28T12:35:37.023Z,12.9
2017-10-28T12:36:37.025Z,12.98
2017-10-28T12:37:36.672Z,12.96
2017-10-28T12:38:36.987Z,13.04
2017-10-28T12:39:36.987Z,12.96
2017-10-28T12:40:36.943Z,13.01
2017-10-28T12:41:36.925Z,12.98
2017-10-28T12:42:36.576Z,12.98
2017-10-28T12:43:36.881Z,13.03
2017-10-28T12:44:36.536Z,13.14
2017-10-28T12:45:36.514Z,13.15
2017-10-28T12:46:36.505Z,13.21
2017-10-28T12:47:36.781Z,13.16
2017-10-28T12:48:36.774Z,13.23
2017-10-28T12:49:36.764Z,13.23
2017-10-28T12:50:36.773Z,13.26
2017-10-28T12:51:36.404Z,13.23
2017-10-28T12:52:36.735Z,13.08
2017-10-28T12:53:36.355Z,13.04
2017-10-28T12:54:36.343Z,13.03
2017-10-28T12:55:36.629Z,12.97